sensor_id;sensor_type;location;lat;lon;timestamp;P1;durP1;ratioP1;P2;durP2;ratioP2
3052;SDS011;1536;51.098;6.414;2023-04-03T00:02:01;5.18;;;4.28;;
3052;SDS011;1536;51.098;6.414;2023-04-03T00:04:28;6.03;;;5.10;;
3052;SDS011;1536;51.098;6.414;2023-04-03T00:06:55;6.82;;;4.90;;
3052;SDS011;1536;51.098;6.414;2023-04-03T00:09:23;5.93;;;5.40;;
3052;SDS011;1536;51.098;6.414;2023-04-03T00:11:50;5.88;;;5.38;;
3052;SDS011;1536;51.098;6.414;2023-04-03T00:14:16;7.57;;;4.95;;
3052;SDS011;1536;51.098;6.414;2023-04-03T00:16:43;5.28;;;4.80;;
3052;SDS011;1536;51.098;6.414;2023-04-03T00:19:10;5.05;;;4.57;;
3052;SDS011;1536;51.098;6.414;2023-04-03T00:21:37;6.43;;;5.20;;
3052;SDS011;1536;51.098;6.414;2023-04-03T00:24:05;5.72;;;5.22;;
3052;SDS011;1536;51.098;6.414;2023-04-03T00:26:33;6.13;;;5.63;;
3052;SDS011;1536;51.098;6.414;2023-04-03T00:29:00;5.65;;;5.15;;
3052;SDS011;1536;51.098;6.414;2023-04-03T00:31:27;6.32;;;5.57;;
3052;SDS011;1536;51.098;6.414;2023-04-03T00:33:54;5.75;;;5.22;;
3052;SDS011;1536;51.098;6.414;2023-04-03T00:36:21;6.82;;;5.10;;
3052;SDS011;1536;51.098;6.414;2023-04-03T00:38:47;6.07;;;5.47;;
3052;SDS011;1536;51.098;6.414;2023-04-03T00:41:14;6.55;;;5.95;;
3052;SDS011;1536;51.098;6.414;2023-04-03T00:43:42;6.10;;;5.53;;
3052;SDS011;1536;51.098;6.414;2023-04-03T00:46:09;6.90;;;6.38;;
3052;SDS011;1536;51.098;6.414;2023-04-03T00:48:37;6.30;;;5.72;;
3052;SDS011;1536;51.098;6.414;2023-04-03T00:51:07;7.40;;;5.15;;
3052;SDS011;1536;51.098;6.414;2023-04-03T00:53:38;8.02;;;5.35;;
3052;SDS011;1536;51.098;6.414;2023-04-03T00:56:08;6.75;;;6.13;;
3052;SDS011;1536;51.098;6.414;2023-04-03T00:58:39;6.50;;;5.72;;
3052;SDS011;1536;51.098;6.414;2023-04-03T01:01:10;6.97;;;5.85;;
3052;SDS011;1536;51.098;6.414;2023-04-03T01:03:41;9.05;;;5.43;;
3052;SDS011;1536;51.098;6.414;2023-04-03T01:06:08;9.88;;;6.18;;
3052;SDS011;1536;51.098;6.414;2023-04-03T01:08:36;6.78;;;6.10;;
3052;SDS011;1536;51.098;6.414;2023-04-03T01:11:04;8.80;;;6.72;;
3052;SDS011;1536;51.098;6.414;2023-04-03T01:13:32;7.63;;;6.30;;
3052;SDS011;1536;51.098;6.414;2023-04-03T01:16:00;6.10;;;5.50;;
3052;SDS011;1536;51.098;6.414;2023-04-03T01:18:31;6.80;;;5.60;;
3052;SDS011;1536;51.098;6.414;2023-04-03T01:21:08;7.60;;;6.65;;
3052;SDS011;1536;51.098;6.414;2023-04-03T01:23:55;8.68;;;6.43;;
3052;SDS011;1536;51.098;6.414;2023-04-03T01:26:30;6.82;;;5.63;;
3052;SDS011;1536;51.098;6.414;2023-04-03T01:28:58;7.57;;;5.75;;
3052;SDS011;1536;51.098;6.414;2023-04-03T01:31:27;7.93;;;6.93;;
3052;SDS011;1536;51.098;6.414;2023-04-03T01:33:59;6.80;;;6.10;;
3052;SDS011;1536;51.098;6.414;2023-04-03T01:36:26;6.85;;;6.25;;
3052;SDS011;1536;51.098;6.414;2023-04-03T01:38:56;7.20;;;6.50;;
3052;SDS011;1536;51.098;6.414;2023-04-03T01:41:24;7.18;;;6.47;;
3052;SDS011;1536;51.098;6.414;2023-04-03T01:43:51;8.18;;;6.35;;
3052;SDS011;1536;51.098;6.414;2023-04-03T01:46:18;6.68;;;6.07;;
3052;SDS011;1536;51.098;6.414;2023-04-03T01:48:45;8.38;;;6.45;;
3052;SDS011;1536;51.098;6.414;2023-04-03T01:51:14;7.50;;;6.72;;
3052;SDS011;1536;51.098;6.414;2023-04-03T01:53:41;10.60;;;7.10;;
3052;SDS011;1536;51.098;6.414;2023-04-03T01:56:08;6.65;;;6.05;;
3052;SDS011;1536;51.098;6.414;2023-04-03T01:58:34;6.22;;;5.60;;
3052;SDS011;1536;51.098;6.414;2023-04-03T02:01:01;6.38;;;5.78;;
3052;SDS011;1536;51.098;6.414;2023-04-03T02:03:28;8.45;;;7.20;;
3052;SDS011;1536;51.098;6.414;2023-04-03T02:05:55;9.23;;;7.22;;
3052;SDS011;1536;51.098;6.414;2023-04-03T02:08:24;8.32;;;6.65;;
3052;SDS011;1536;51.098;6.414;2023-04-03T02:10:51;6.75;;;6.15;;
3052;SDS011;1536;51.098;6.414;2023-04-03T02:13:18;8.95;;;6.75;;
3052;SDS011;1536;51.098;6.414;2023-04-03T02:15:45;6.82;;;6.00;;
3052;SDS011;1536;51.098;6.414;2023-04-03T02:18:14;8.23;;;7.07;;
3052;SDS011;1536;51.098;6.414;2023-04-03T02:20:42;6.80;;;6.10;;
3052;SDS011;1536;51.098;6.414;2023-04-03T02:23:08;6.97;;;6.38;;
3052;SDS011;1536;51.098;6.414;2023-04-03T02:25:37;7.68;;;6.35;;
3052;SDS011;1536;51.098;6.414;2023-04-03T02:28:03;7.63;;;6.25;;
3052;SDS011;1536;51.098;6.414;2023-04-03T02:30:31;7.47;;;6.75;;
3052;SDS011;1536;51.098;6.414;2023-04-03T02:32:58;7.18;;;6.53;;
3052;SDS011;1536;51.098;6.414;2023-04-03T02:35:25;8.55;;;6.65;;
3052;SDS011;1536;51.098;6.414;2023-04-03T02:37:51;7.63;;;6.78;;
3052;SDS011;1536;51.098;6.414;2023-04-03T02:40:18;5.97;;;5.30;;
3052;SDS011;1536;51.098;6.414;2023-04-03T02:42:46;6.25;;;5.50;;
3052;SDS011;1536;51.098;6.414;2023-04-03T02:45:13;7.22;;;6.63;;
3052;SDS011;1536;51.098;6.414;2023-04-03T02:47:40;8.48;;;6.43;;
3052;SDS011;1536;51.098;6.414;2023-04-03T02:50:07;6.80;;;6.03;;
3052;SDS011;1536;51.098;6.414;2023-04-03T02:52:34;6.25;;;5.65;;
3052;SDS011;1536;51.098;6.414;2023-04-03T02:55:01;10.85;;;7.32;;
3052;SDS011;1536;51.098;6.414;2023-04-03T02:57:28;7.45;;;6.30;;
3052;SDS011;1536;51.098;6.414;2023-04-03T02:59:56;7.28;;;6.57;;
3052;SDS011;1536;51.098;6.414;2023-04-03T03:02:23;7.68;;;6.45;;
3052;SDS011;1536;51.098;6.414;2023-04-03T03:04:50;6.90;;;6.20;;
3052;SDS011;1536;51.098;6.414;2023-04-03T03:07:16;6.43;;;5.82;;
3052;SDS011;1536;51.098;6.414;2023-04-03T03:09:43;9.20;;;6.97;;
3052;SDS011;1536;51.098;6.414;2023-04-03T03:12:10;6.93;;;6.25;;
3052;SDS011;1536;51.098;6.414;2023-04-03T03:14:37;6.95;;;6.30;;
3052;SDS011;1536;51.098;6.414;2023-04-03T03:17:05;7.32;;;6.72;;
3052;SDS011;1536;51.098;6.414;2023-04-03T03:19:32;7.20;;;6.57;;
3052;SDS011;1536;51.098;6.414;2023-04-03T03:21:58;6.95;;;6.35;;
3052;SDS011;1536;51.098;6.414;2023-04-03T03:24:25;8.35;;;7.15;;
3052;SDS011;1536;51.098;6.414;2023-04-03T03:26:52;6.93;;;6.30;;
3052;SDS011;1536;51.098;6.414;2023-04-03T03:29:18;9.93;;;7.13;;
3052;SDS011;1536;51.098;6.414;2023-04-03T03:31:45;6.93;;;6.22;;
3052;SDS011;1536;51.098;6.414;2023-04-03T03:34:13;10.63;;;6.65;;
3052;SDS011;1536;51.098;6.414;2023-04-03T03:36:40;7.05;;;6.30;;
3052;SDS011;1536;51.098;6.414;2023-04-03T03:39:07;7.45;;;6.70;;
3052;SDS011;1536;51.098;6.414;2023-04-03T03:41:34;7.32;;;6.25;;
3052;SDS011;1536;51.098;6.414;2023-04-03T03:44:02;7.72;;;6.90;;
3052;SDS011;1536;51.098;6.414;2023-04-03T03:46:29;7.88;;;6.45;;
3052;SDS011;1536;51.098;6.414;2023-04-03T03:48:56;10.32;;;6.75;;
3052;SDS011;1536;51.098;6.414;2023-04-03T03:51:24;8.13;;;6.80;;
3052;SDS011;1536;51.098;6.414;2023-04-03T03:53:51;7.80;;;7.10;;
3052;SDS011;1536;51.098;6.414;2023-04-03T03:56:17;10.23;;;6.78;;
3052;SDS011;1536;51.098;6.414;2023-04-03T03:58:45;7.25;;;6.53;;
3052;SDS011;1536;51.098;6.414;2023-04-03T04:01:12;7.43;;;6.28;;
3052;SDS011;1536;51.098;6.414;2023-04-03T04:03:38;7.10;;;6.35;;
3052;SDS011;1536;51.098;6.414;2023-04-03T04:06:05;8.50;;;6.55;;
3052;SDS011;1536;51.098;6.414;2023-04-03T04:08:33;11.68;;;7.13;;
3052;SDS011;1536;51.098;6.414;2023-04-03T04:11:00;8.20;;;6.50;;
3052;SDS011;1536;51.098;6.414;2023-04-03T04:13:27;14.25;;;8.15;;
3052;SDS011;1536;51.098;6.414;2023-04-03T04:15:53;9.13;;;6.80;;
3052;SDS011;1536;51.098;6.414;2023-04-03T04:18:20;12.32;;;6.90;;
3052;SDS011;1536;51.098;6.414;2023-04-03T04:20:47;7.75;;;6.40;;
3052;SDS011;1536;51.098;6.414;2023-04-03T04:23:14;8.20;;;6.53;;
3052;SDS011;1536;51.098;6.414;2023-04-03T04:25:45;10.73;;;7.32;;
3052;SDS011;1536;51.098;6.414;2023-04-03T04:28:11;7.95;;;7.05;;
3052;SDS011;1536;51.098;6.414;2023-04-03T04:30:38;8.82;;;6.40;;
3052;SDS011;1536;51.098;6.414;2023-04-03T04:33:05;7.38;;;6.63;;
3052;SDS011;1536;51.098;6.414;2023-04-03T04:35:32;9.90;;;6.70;;
3052;SDS011;1536;51.098;6.414;2023-04-03T04:37:59;6.78;;;6.07;;
3052;SDS011;1536;51.098;6.414;2023-04-03T04:40:26;8.30;;;6.55;;
3052;SDS011;1536;51.098;6.414;2023-04-03T04:42:54;8.57;;;6.30;;
3052;SDS011;1536;51.098;6.414;2023-04-03T04:45:21;7.65;;;6.85;;
3052;SDS011;1536;51.098;6.414;2023-04-03T04:47:48;8.35;;;5.70;;
3052;SDS011;1536;51.098;6.414;2023-04-03T04:50:16;6.40;;;5.63;;
3052;SDS011;1536;51.098;6.414;2023-04-03T04:52:43;7.07;;;6.47;;
3052;SDS011;1536;51.098;6.414;2023-04-03T04:55:10;7.22;;;6.50;;
3052;SDS011;1536;51.098;6.414;2023-04-03T04:57:37;7.35;;;6.60;;
3052;SDS011;1536;51.098;6.414;2023-04-03T05:00:05;7.00;;;6.32;;
3052;SDS011;1536;51.098;6.414;2023-04-03T05:02:33;8.70;;;6.40;;
3052;SDS011;1536;51.098;6.414;2023-04-03T05:05:00;7.00;;;6.25;;
3052;SDS011;1536;51.098;6.414;2023-04-03T05:07:27;8.93;;;6.72;;
3052;SDS011;1536;51.098;6.414;2023-04-03T05:09:53;7.70;;;5.45;;
3052;SDS011;1536;51.098;6.414;2023-04-03T05:12:20;10.57;;;6.80;;
3052;SDS011;1536;51.098;6.414;2023-04-03T05:14:47;8.55;;;6.57;;
3052;SDS011;1536;51.098;6.414;2023-04-03T05:17:15;6.47;;;5.90;;
3052;SDS011;1536;51.098;6.414;2023-04-03T05:19:41;9.90;;;6.50;;
3052;SDS011;1536;51.098;6.414;2023-04-03T05:22:08;7.60;;;5.55;;
3052;SDS011;1536;51.098;6.414;2023-04-03T05:24:35;12.85;;;7.75;;
3052;SDS011;1536;51.098;6.414;2023-04-03T05:27:02;5.80;;;4.85;;
3052;SDS011;1536;51.098;6.414;2023-04-03T05:29:29;6.60;;;5.63;;
3052;SDS011;1536;51.098;6.414;2023-04-03T05:31:56;7.05;;;5.65;;
3052;SDS011;1536;51.098;6.414;2023-04-03T05:34:24;5.43;;;4.90;;
3052;SDS011;1536;51.098;6.414;2023-04-03T05:36:50;10.45;;;6.68;;
3052;SDS011;1536;51.098;6.414;2023-04-03T05:39:18;10.48;;;5.05;;
3052;SDS011;1536;51.098;6.414;2023-04-03T05:41:44;5.00;;;4.47;;
3052;SDS011;1536;51.098;6.414;2023-04-03T05:44:11;8.80;;;5.65;;
3052;SDS011;1536;51.098;6.414;2023-04-03T05:46:38;6.03;;;4.70;;
3052;SDS011;1536;51.098;6.414;2023-04-03T05:49:04;7.07;;;4.90;;
3052;SDS011;1536;51.098;6.414;2023-04-03T05:51:33;6.53;;;4.80;;
3052;SDS011;1536;51.098;6.414;2023-04-03T05:54:03;6.88;;;4.40;;
3052;SDS011;1536;51.098;6.414;2023-04-03T05:56:35;5.80;;;4.30;;
3052;SDS011;1536;51.098;6.414;2023-04-03T05:59:02;6.75;;;5.28;;
3052;SDS011;1536;51.098;6.414;2023-04-03T06:01:29;12.88;;;4.63;;
3052;SDS011;1536;51.098;6.414;2023-04-03T06:03:55;8.55;;;4.18;;
3052;SDS011;1536;51.098;6.414;2023-04-03T06:06:23;7.15;;;4.90;;
3052;SDS011;1536;51.098;6.414;2023-04-03T06:08:51;5.82;;;5.07;;
3052;SDS011;1536;51.098;6.414;2023-04-03T06:11:18;5.93;;;4.40;;
3052;SDS011;1536;51.098;6.414;2023-04-03T06:13:46;5.72;;;4.00;;
3052;SDS011;1536;51.098;6.414;2023-04-03T06:16:13;5.97;;;4.70;;
3052;SDS011;1536;51.098;6.414;2023-04-03T06:18:42;5.30;;;4.07;;
3052;SDS011;1536;51.098;6.414;2023-04-03T06:21:08;4.85;;;3.88;;
3052;SDS011;1536;51.098;6.414;2023-04-03T06:23:35;5.53;;;5.03;;
3052;SDS011;1536;51.098;6.414;2023-04-03T06:26:04;10.18;;;5.07;;
3052;SDS011;1536;51.098;6.414;2023-04-03T06:28:30;6.63;;;4.15;;
3052;SDS011;1536;51.098;6.414;2023-04-03T06:30:57;5.95;;;4.28;;
3052;SDS011;1536;51.098;6.414;2023-04-03T06:33:24;8.32;;;4.20;;
3052;SDS011;1536;51.098;6.414;2023-04-03T06:35:55;12.43;;;4.30;;
3052;SDS011;1536;51.098;6.414;2023-04-03T06:38:23;10.93;;;4.40;;
3052;SDS011;1536;51.098;6.414;2023-04-03T06:40:49;5.78;;;4.13;;
3052;SDS011;1536;51.098;6.414;2023-04-03T06:43:18;5.05;;;4.30;;
3052;SDS011;1536;51.098;6.414;2023-04-03T06:45:45;4.95;;;4.55;;
3052;SDS011;1536;51.098;6.414;2023-04-03T06:48:12;8.55;;;4.22;;
3052;SDS011;1536;51.098;6.414;2023-04-03T06:50:39;8.65;;;4.47;;
3052;SDS011;1536;51.098;6.414;2023-04-03T06:53:06;9.07;;;3.92;;
3052;SDS011;1536;51.098;6.414;2023-04-03T06:55:33;6.38;;;4.05;;
3052;SDS011;1536;51.098;6.414;2023-04-03T06:58:00;4.63;;;4.10;;
3052;SDS011;1536;51.098;6.414;2023-04-03T07:00:29;6.75;;;4.20;;
3052;SDS011;1536;51.098;6.414;2023-04-03T07:02:56;4.90;;;4.25;;
3052;SDS011;1536;51.098;6.414;2023-04-03T07:05:23;8.43;;;4.60;;
3052;SDS011;1536;51.098;6.414;2023-04-03T07:07:51;7.03;;;5.28;;
3052;SDS011;1536;51.098;6.414;2023-04-03T07:10:18;6.85;;;5.15;;
3052;SDS011;1536;51.098;6.414;2023-04-03T07:12:45;8.77;;;5.00;;
3052;SDS011;1536;51.098;6.414;2023-04-03T07:15:11;7.15;;;4.55;;
3052;SDS011;1536;51.098;6.414;2023-04-03T07:17:40;8.27;;;4.65;;
3052;SDS011;1536;51.098;6.414;2023-04-03T07:20:08;10.52;;;4.63;;
3052;SDS011;1536;51.098;6.414;2023-04-03T07:22:35;7.03;;;4.18;;
3052;SDS011;1536;51.098;6.414;2023-04-03T07:25:02;10.95;;;5.72;;
3052;SDS011;1536;51.098;6.414;2023-04-03T07:27:31;7.45;;;4.97;;
3052;SDS011;1536;51.098;6.414;2023-04-03T07:29:58;7.03;;;4.78;;
3052;SDS011;1536;51.098;6.414;2023-04-03T07:32:25;4.90;;;4.00;;
3052;SDS011;1536;51.098;6.414;2023-04-03T07:34:53;7.15;;;4.68;;
3052;SDS011;1536;51.098;6.414;2023-04-03T07:37:20;9.80;;;4.82;;
3052;SDS011;1536;51.098;6.414;2023-04-03T07:39:47;4.60;;;4.20;;
3052;SDS011;1536;51.098;6.414;2023-04-03T07:42:14;6.70;;;4.20;;
3052;SDS011;1536;51.098;6.414;2023-04-03T07:44:41;11.05;;;5.00;;
3052;SDS011;1536;51.098;6.414;2023-04-03T07:47:08;4.93;;;4.28;;
3052;SDS011;1536;51.098;6.414;2023-04-03T07:49:35;8.38;;;4.05;;
3052;SDS011;1536;51.098;6.414;2023-04-03T07:52:05;5.57;;;4.03;;
3052;SDS011;1536;51.098;6.414;2023-04-03T07:54:33;3.92;;;3.15;;
3052;SDS011;1536;51.098;6.414;2023-04-03T07:57:00;6.95;;;3.97;;
3052;SDS011;1536;51.098;6.414;2023-04-03T07:59:27;6.20;;;4.35;;
3052;SDS011;1536;51.098;6.414;2023-04-03T08:01:54;5.22;;;3.50;;
3052;SDS011;1536;51.098;6.414;2023-04-03T08:04:21;5.30;;;3.90;;
3052;SDS011;1536;51.098;6.414;2023-04-03T08:06:48;4.68;;;3.40;;
3052;SDS011;1536;51.098;6.414;2023-04-03T08:09:17;6.85;;;4.40;;
3052;SDS011;1536;51.098;6.414;2023-04-03T08:11:44;8.27;;;3.60;;
3052;SDS011;1536;51.098;6.414;2023-04-03T08:14:11;11.88;;;3.70;;
3052;SDS011;1536;51.098;6.414;2023-04-03T08:16:41;7.90;;;3.80;;
3052;SDS011;1536;51.098;6.414;2023-04-03T08:19:09;6.68;;;3.30;;
3052;SDS011;1536;51.098;6.414;2023-04-03T08:21:36;8.95;;;3.70;;
3052;SDS011;1536;51.098;6.414;2023-04-03T08:24:03;3.28;;;2.90;;
3052;SDS011;1536;51.098;6.414;2023-04-03T08:26:32;6.18;;;4.05;;
3052;SDS011;1536;51.098;6.414;2023-04-03T08:28:59;4.97;;;3.30;;
3052;SDS011;1536;51.098;6.414;2023-04-03T08:31:25;8.18;;;3.35;;
3052;SDS011;1536;51.098;6.414;2023-04-03T08:33:52;4.05;;;3.05;;
3052;SDS011;1536;51.098;6.414;2023-04-03T08:36:20;6.03;;;3.50;;
3052;SDS011;1536;51.098;6.414;2023-04-03T08:38:48;6.07;;;3.55;;
3052;SDS011;1536;51.098;6.414;2023-04-03T08:41:16;5.03;;;3.40;;
3052;SDS011;1536;51.098;6.414;2023-04-03T08:43:59;4.68;;;2.95;;
3052;SDS011;1536;51.098;6.414;2023-04-03T08:46:34;3.88;;;2.92;;
3052;SDS011;1536;51.098;6.414;2023-04-03T08:49:14;6.30;;;3.08;;
3052;SDS011;1536;51.098;6.414;2023-04-03T08:51:48;3.50;;;2.67;;
3052;SDS011;1536;51.098;6.414;2023-04-03T08:54:19;4.45;;;2.72;;
3052;SDS011;1536;51.098;6.414;2023-04-03T08:56:51;2.95;;;2.40;;
3052;SDS011;1536;51.098;6.414;2023-04-03T08:59:21;4.72;;;2.67;;
3052;SDS011;1536;51.098;6.414;2023-04-03T09:01:53;2.80;;;2.60;;
3052;SDS011;1536;51.098;6.414;2023-04-03T09:04:21;4.25;;;3.10;;
3052;SDS011;1536;51.098;6.414;2023-04-03T09:06:49;2.97;;;2.78;;
3052;SDS011;1536;51.098;6.414;2023-04-03T09:09:24;2.90;;;2.60;;
3052;SDS011;1536;51.098;6.414;2023-04-03T09:12:00;3.00;;;2.70;;
3052;SDS011;1536;51.098;6.414;2023-04-03T09:14:41;7.57;;;3.20;;
3052;SDS011;1536;51.098;6.414;2023-04-03T09:17:12;4.03;;;2.38;;
3052;SDS011;1536;51.098;6.414;2023-04-03T09:19:45;2.83;;;2.40;;
3052;SDS011;1536;51.098;6.414;2023-04-03T09:22:21;3.67;;;3.30;;
3052;SDS011;1536;51.098;6.414;2023-04-03T09:24:52;7.57;;;2.97;;
3052;SDS011;1536;51.098;6.414;2023-04-03T09:27:23;2.50;;;2.30;;
3052;SDS011;1536;51.098;6.414;2023-04-03T09:29:52;2.60;;;2.40;;
3052;SDS011;1536;51.098;6.414;2023-04-03T09:32:21;4.53;;;4.13;;
3052;SDS011;1536;51.098;6.414;2023-04-03T09:34:51;6.65;;;2.28;;
3052;SDS011;1536;51.098;6.414;2023-04-03T09:37:39;2.75;;;2.50;;
3052;SDS011;1536;51.098;6.414;2023-04-03T09:43:00;5.75;;;2.65;;
3052;SDS011;1536;51.098;6.414;2023-04-03T09:45:31;4.28;;;2.50;;
3052;SDS011;1536;51.098;6.414;2023-04-03T09:48:08;12.88;;;3.10;;
3052;SDS011;1536;51.098;6.414;2023-04-03T09:50:52;5.20;;;2.85;;
3052;SDS011;1536;51.098;6.414;2023-04-03T09:53:31;2.40;;;2.20;;
3052;SDS011;1536;51.098;6.414;2023-04-03T09:56:02;4.15;;;2.55;;
3052;SDS011;1536;51.098;6.414;2023-04-03T09:58:31;4.63;;;3.25;;
3052;SDS011;1536;51.098;6.414;2023-04-03T10:01:04;3.03;;;2.83;;
3052;SDS011;1536;51.098;6.414;2023-04-03T10:03:32;4.85;;;2.63;;
3052;SDS011;1536;51.098;6.414;2023-04-03T10:06:01;4.10;;;2.88;;
3052;SDS011;1536;51.098;6.414;2023-04-03T10:08:29;2.97;;;2.60;;
3052;SDS011;1536;51.098;6.414;2023-04-03T10:13:50;3.30;;;2.83;;
3052;SDS011;1536;51.098;6.414;2023-04-03T10:16:22;3.63;;;2.88;;
3052;SDS011;1536;51.098;6.414;2023-04-03T10:18:56;2.92;;;2.60;;
3052;SDS011;1536;51.098;6.414;2023-04-03T10:21:30;3.67;;;2.65;;
3052;SDS011;1536;51.098;6.414;2023-04-03T10:24:06;3.90;;;2.58;;
3052;SDS011;1536;51.098;6.414;2023-04-03T10:26:39;3.35;;;2.40;;
3052;SDS011;1536;51.098;6.414;2023-04-03T10:29:15;4.32;;;2.95;;
3052;SDS011;1536;51.098;6.414;2023-04-03T10:31:50;6.00;;;2.75;;
3052;SDS011;1536;51.098;6.414;2023-04-03T10:34:27;5.97;;;3.15;;
3052;SDS011;1536;51.098;6.414;2023-04-03T10:36:57;5.10;;;2.75;;
3052;SDS011;1536;51.098;6.414;2023-04-03T10:39:34;3.17;;;2.55;;
3052;SDS011;1536;51.098;6.414;2023-04-03T10:42:08;4.30;;;3.55;;
3052;SDS011;1536;51.098;6.414;2023-04-03T10:44:42;3.22;;;2.60;;
3052;SDS011;1536;51.098;6.414;2023-04-03T10:47:29;4.32;;;3.10;;
3052;SDS011;1536;51.098;6.414;2023-04-03T10:50:05;4.65;;;3.40;;
3052;SDS011;1536;51.098;6.414;2023-04-03T10:52:47;3.65;;;2.63;;
3052;SDS011;1536;51.098;6.414;2023-04-03T10:55:21;6.70;;;3.22;;
3052;SDS011;1536;51.098;6.414;2023-04-03T10:57:57;3.00;;;2.63;;
3052;SDS011;1536;51.098;6.414;2023-04-03T11:00:27;3.72;;;3.00;;
3052;SDS011;1536;51.098;6.414;2023-04-03T11:03:05;2.67;;;2.45;;
3052;SDS011;1536;51.098;6.414;2023-04-03T11:05:36;3.67;;;2.60;;
3052;SDS011;1536;51.098;6.414;2023-04-03T11:08:08;6.10;;;2.90;;
3052;SDS011;1536;51.098;6.414;2023-04-03T11:10:40;3.67;;;2.65;;
3052;SDS011;1536;51.098;6.414;2023-04-03T11:13:11;2.90;;;2.60;;
3052;SDS011;1536;51.098;6.414;2023-04-03T11:15:40;2.60;;;2.40;;
3052;SDS011;1536;51.098;6.414;2023-04-03T11:18:11;4.70;;;2.70;;
3052;SDS011;1536;51.098;6.414;2023-04-03T11:20:41;4.20;;;3.00;;
3052;SDS011;1536;51.098;6.414;2023-04-03T11:23:12;2.63;;;2.20;;
3052;SDS011;1536;51.098;6.414;2023-04-03T11:25:45;4.60;;;2.60;;
3052;SDS011;1536;51.098;6.414;2023-04-03T11:28:17;2.90;;;2.70;;
3052;SDS011;1536;51.098;6.414;2023-04-03T11:30:45;4.90;;;2.70;;
3052;SDS011;1536;51.098;6.414;2023-04-03T11:33:24;3.05;;;2.58;;
3052;SDS011;1536;51.098;6.414;2023-04-03T11:36:00;2.85;;;2.65;;
3052;SDS011;1536;51.098;6.414;2023-04-03T11:38:33;4.65;;;3.13;;
3052;SDS011;1536;51.098;6.414;2023-04-03T11:41:04;2.75;;;2.55;;
3052;SDS011;1536;51.098;6.414;2023-04-03T11:43:38;5.85;;;2.67;;
3052;SDS011;1536;51.098;6.414;2023-04-03T11:46:07;2.78;;;2.38;;
3052;SDS011;1536;51.098;6.414;2023-04-03T11:48:44;3.55;;;3.03;;
3052;SDS011;1536;51.098;6.414;2023-04-03T11:51:38;2.45;;;2.25;;
3052;SDS011;1536;51.098;6.414;2023-04-03T12:03:30;2.80;;;2.60;;
3052;SDS011;1536;51.098;6.414;2023-04-03T12:09:25;3.13;;;2.55;;
3052;SDS011;1536;51.098;6.414;2023-04-03T12:12:21;2.90;;;2.70;;
3052;SDS011;1536;51.098;6.414;2023-04-03T12:14:53;3.72;;;2.38;;
3052;SDS011;1536;51.098;6.414;2023-04-03T12:17:20;2.85;;;2.65;;
3052;SDS011;1536;51.098;6.414;2023-04-03T12:19:51;5.70;;;3.75;;
3052;SDS011;1536;51.098;6.414;2023-04-03T12:22:18;3.75;;;2.38;;
3052;SDS011;1536;51.098;6.414;2023-04-03T12:24:48;4.68;;;2.45;;
3052;SDS011;1536;51.098;6.414;2023-04-03T12:27:24;2.70;;;2.50;;
3052;SDS011;1536;51.098;6.414;2023-04-03T12:29:55;4.00;;;3.15;;
3052;SDS011;1536;51.098;6.414;2023-04-03T12:32:31;2.70;;;2.30;;
3052;SDS011;1536;51.098;6.414;2023-04-03T12:35:14;3.95;;;2.80;;
3052;SDS011;1536;51.098;6.414;2023-04-03T12:37:50;3.17;;;2.30;;
3052;SDS011;1536;51.098;6.414;2023-04-03T12:40:39;2.45;;;2.25;;
3052;SDS011;1536;51.098;6.414;2023-04-03T12:43:17;2.88;;;2.63;;
3052;SDS011;1536;51.098;6.414;2023-04-03T12:45:52;7.97;;;3.25;;
3052;SDS011;1536;51.098;6.414;2023-04-03T12:48:26;3.45;;;3.25;;
3052;SDS011;1536;51.098;6.414;2023-04-03T12:50:55;2.50;;;2.30;;
3052;SDS011;1536;51.098;6.414;2023-04-03T12:53:24;3.00;;;2.70;;
3052;SDS011;1536;51.098;6.414;2023-04-03T12:55:55;4.72;;;3.65;;
3052;SDS011;1536;51.098;6.414;2023-04-03T12:58:22;4.70;;;2.80;;
3052;SDS011;1536;51.098;6.414;2023-04-03T13:01:01;3.83;;;2.83;;
3052;SDS011;1536;51.098;6.414;2023-04-03T13:03:30;3.38;;;2.20;;
3052;SDS011;1536;51.098;6.414;2023-04-03T13:05:59;3.15;;;2.65;;
3052;SDS011;1536;51.098;6.414;2023-04-03T13:08:28;3.58;;;2.42;;
3052;SDS011;1536;51.098;6.414;2023-04-03T13:10:59;2.00;;;1.90;;
3052;SDS011;1536;51.098;6.414;2023-04-03T13:13:30;3.95;;;2.58;;
3052;SDS011;1536;51.098;6.414;2023-04-03T13:15:56;4.83;;;2.67;;
3052;SDS011;1536;51.098;6.414;2023-04-03T13:18:25;3.10;;;2.33;;
3052;SDS011;1536;51.098;6.414;2023-04-03T13:20:58;3.05;;;2.75;;
3052;SDS011;1536;51.098;6.414;2023-04-03T13:23:29;2.75;;;2.50;;
3052;SDS011;1536;51.098;6.414;2023-04-03T13:25:57;2.60;;;2.40;;
3052;SDS011;1536;51.098;6.414;2023-04-03T13:28:28;2.28;;;2.15;;
3052;SDS011;1536;51.098;6.414;2023-04-03T13:30:57;2.50;;;2.15;;
3052;SDS011;1536;51.098;6.414;2023-04-03T13:33:28;6.07;;;3.13;;
3052;SDS011;1536;51.098;6.414;2023-04-03T13:36:16;3.60;;;2.70;;
3052;SDS011;1536;51.098;6.414;2023-04-03T13:38:44;2.50;;;2.30;;
3052;SDS011;1536;51.098;6.414;2023-04-03T13:41:25;2.50;;;2.30;;
3052;SDS011;1536;51.098;6.414;2023-04-03T13:43:55;3.00;;;2.60;;
3052;SDS011;1536;51.098;6.414;2023-04-03T13:46:24;2.47;;;2.30;;
3052;SDS011;1536;51.098;6.414;2023-04-03T13:48:53;2.38;;;2.17;;
3052;SDS011;1536;51.098;6.414;2023-04-03T13:51:22;5.70;;;2.70;;
3052;SDS011;1536;51.098;6.414;2023-04-03T13:53:52;3.15;;;2.65;;
3052;SDS011;1536;51.098;6.414;2023-04-03T13:56:27;3.40;;;3.03;;
3052;SDS011;1536;51.098;6.414;2023-04-03T13:59:02;4.50;;;2.93;;
3052;SDS011;1536;51.098;6.414;2023-04-03T14:01:38;2.40;;;2.20;;
3052;SDS011;1536;51.098;6.414;2023-04-03T14:04:10;4.10;;;2.90;;
3052;SDS011;1536;51.098;6.414;2023-04-03T14:06:39;2.92;;;2.72;;
3052;SDS011;1536;51.098;6.414;2023-04-03T14:09:06;4.57;;;2.90;;
3052;SDS011;1536;51.098;6.414;2023-04-03T14:11:34;2.88;;;2.65;;
3052;SDS011;1536;51.098;6.414;2023-04-03T14:14:05;2.58;;;2.40;;
3052;SDS011;1536;51.098;6.414;2023-04-03T14:16:37;2.60;;;2.40;;
3052;SDS011;1536;51.098;6.414;2023-04-03T14:19:05;3.70;;;2.83;;
3052;SDS011;1536;51.098;6.414;2023-04-03T14:21:37;2.70;;;2.40;;
3052;SDS011;1536;51.098;6.414;2023-04-03T14:24:03;2.83;;;2.60;;
3052;SDS011;1536;51.098;6.414;2023-04-03T14:26:30;8.93;;;3.07;;
3052;SDS011;1536;51.098;6.414;2023-04-03T14:28:58;3.20;;;2.90;;
3052;SDS011;1536;51.098;6.414;2023-04-03T14:31:25;2.60;;;2.40;;
3052;SDS011;1536;51.098;6.414;2023-04-03T14:33:52;2.80;;;2.60;;
3052;SDS011;1536;51.098;6.414;2023-04-03T14:36:20;4.50;;;2.95;;
3052;SDS011;1536;51.098;6.414;2023-04-03T14:38:49;4.13;;;2.65;;
3052;SDS011;1536;51.098;6.414;2023-04-03T14:41:17;3.27;;;2.13;;
3052;SDS011;1536;51.098;6.414;2023-04-03T14:43:45;6.60;;;2.60;;
3052;SDS011;1536;51.098;6.414;2023-04-03T14:46:15;3.03;;;2.70;;
3052;SDS011;1536;51.098;6.414;2023-04-03T14:48:43;3.03;;;2.83;;
3052;SDS011;1536;51.098;6.414;2023-04-03T14:51:11;3.00;;;2.80;;
3052;SDS011;1536;51.098;6.414;2023-04-03T14:53:38;3.23;;;2.70;;
3052;SDS011;1536;51.098;6.414;2023-04-03T14:56:10;3.53;;;3.23;;
3052;SDS011;1536;51.098;6.414;2023-04-03T14:58:38;5.60;;;3.00;;
3052;SDS011;1536;51.098;6.414;2023-04-03T15:01:05;3.30;;;2.83;;
3052;SDS011;1536;51.098;6.414;2023-04-03T15:03:33;7.77;;;3.00;;
3052;SDS011;1536;51.098;6.414;2023-04-03T15:06:00;5.83;;;2.80;;
3052;SDS011;1536;51.098;6.414;2023-04-03T15:08:27;4.23;;;2.90;;
3052;SDS011;1536;51.098;6.414;2023-04-03T15:10:55;3.43;;;3.03;;
3052;SDS011;1536;51.098;6.414;2023-04-03T15:13:23;3.10;;;2.80;;
3052;SDS011;1536;51.098;6.414;2023-04-03T15:15:50;3.17;;;2.90;;
3052;SDS011;1536;51.098;6.414;2023-04-03T15:18:18;3.23;;;2.63;;
3052;SDS011;1536;51.098;6.414;2023-04-03T15:20:49;5.83;;;2.90;;
3052;SDS011;1536;51.098;6.414;2023-04-03T15:23:16;3.40;;;2.70;;
3052;SDS011;1536;51.098;6.414;2023-04-03T15:25:43;3.67;;;3.20;;
3052;SDS011;1536;51.098;6.414;2023-04-03T15:28:15;5.87;;;3.43;;
3052;SDS011;1536;51.098;6.414;2023-04-03T15:30:45;5.17;;;4.10;;
3052;SDS011;1536;51.098;6.414;2023-04-03T15:33:12;2.77;;;2.53;;
3052;SDS011;1536;51.098;6.414;2023-04-03T15:35:40;3.37;;;2.40;;
3052;SDS011;1536;51.098;6.414;2023-04-03T15:38:08;3.10;;;2.80;;
3052;SDS011;1536;51.098;6.414;2023-04-03T15:40:35;3.27;;;2.97;;
3052;SDS011;1536;51.098;6.414;2023-04-03T15:43:02;3.97;;;3.30;;
3052;SDS011;1536;51.098;6.414;2023-04-03T15:45:29;4.70;;;2.90;;
3052;SDS011;1536;51.098;6.414;2023-04-03T15:47:57;4.60;;;3.40;;